Orange8 — JL6278 — position and weather

sailwx.info

Track history (hours):
 
Tides and Currents Weather Stations Pressure Air Temp Water Temp Dewpoint Dewpoint Depression Visibility Wind Speed Wind Dir Waves Ship Positions

Orange8

Last reported at 2014-Sep-01 14:33 UTC. Time now 2014-Sep-01 21:31 UTC.
Position N 34°37' E 134°58'.

Length 164 m; draft 5 m.

Type: Passenger vessel. MMSI: 431501603.

Date/timePositionNaut miles runAvg speedWind from/ knotsBaromVisibWave heightAir tempDewpointWater temp
2014-Sep-01 14:33N 34°37' E 134°58'1918.5
2014-Sep-01 13:33N 34°37' E 135°21'4 4.2
2014-Sep-01 12:31N 34°37' E 135°26'0 0.0
2014-Sep-01 11:25N 34°37' E 135°26'0 0.0
2014-Sep-01 10:31N 34°37' E 135°26'0 0.0
2014-Sep-01 09:31N 34°37' E 135°26'0 0.0
2014-Sep-01 08:31N 34°37' E 135°26'0 0.0
2014-Sep-01 07:31N 34°37' E 135°26'0 0.0
2014-Sep-01 06:31N 34°37' E 135°26'0 0.0
2014-Sep-01 05:25N 34°37' E 135°26'0 0.0
2014-Sep-01 04:31N 34°37' E 135°26'0 0.0
2014-Sep-01 03:31N 34°37' E 135°26'0 0.0
2014-Sep-01 02:31N 34°37' E 135°26'0 0.0
2014-Sep-01 01:25N 34°37' E 135°26'0 0.0
2014-Sep-01 00:31N 34°37' E 135°26'0 0.0
2014-Aug-31 23:31N 34°37' E 135°26'0 0.0
2014-Aug-31 22:31N 34°37' E 135°26'0 0.0
2014-Aug-31 21:25N 34°37' E 135°26'7 8.0
2014-Aug-31 20:33N 34°35' E 135°18'1817.9
2014-Aug-31 19:34N 34°36' E 134°56'1 0.0
2014-Aug-30 14:34N 34°37' E 134°56'1818.4
2014-Aug-30 13:34N 34°37' E 135°18'6 5.6
2014-Aug-30 12:28N 34°37' E 135°26'0 0.0
2014-Aug-30 11:28N 34°37' E 135°26'0 0.0
2014-Aug-30 10:28N 34°37' E 135°26'0 0.0
2014-Aug-30 06:04N 34°37' E 135°26'0 0.0
2014-Aug-30 05:04N 34°37' E 135°26'0 0.0
2014-Aug-30 04:28N 34°37' E 135°26'0 0.0
2014-Aug-30 03:16N 34°37' E 135°26'0 0.0
2014-Aug-30 02:28N 34°37' E 135°26'0 0.0
2014-Aug-30 01:07N 34°37' E 135°26'0 0.0
2014-Aug-30 00:31N 34°37' E 135°26'0 0.0
2014-Aug-29 23:13N 34°37' E 135°26'0 0.0
2014-Aug-29 22:31N 34°37' E 135°26'0 0.0
2014-Aug-29 21:31N 34°37' E 135°26'5 5.2
2014-Aug-29 20:33N 34°36' E 135°20'1818.2
2014-Aug-29 19:33N 34°36' E 134°58'14 0.5
2014-Aug-28 15:15N 34°32' E 134°42'1420.0
2014-Aug-28 14:33N 34°37' E 134°57'1817.9
2014-Aug-28 13:33N 34°36' E 135°19'6 5.2
2014-Aug-28 12:29N 34°37' E 135°26'0 0.0
2014-Aug-28 11:29N 34°37' E 135°26'0 0.0
2014-Aug-28 10:29N 34°37' E 135°26'0 0.0
2014-Aug-28 09:29N 34°37' E 135°26'0 0.0
2014-Aug-28 08:23N 34°37' E 135°26'0 0.0
2014-Aug-28 07:29N 34°37' E 135°26'0 0.0
2014-Aug-28 06:29N 34°37' E 135°26'0 0.0
2014-Aug-28 05:17N 34°37' E 135°26'0 0.0
2014-Aug-28 04:29N 34°37' E 135°26'0 0.0
2014-Aug-28 03:17N 34°37' E 135°26'0 0.0
2014-Aug-28 02:26N 34°37' E 135°26'0 0.0
2014-Aug-28 01:32N 34°37' E 135°26'0 0.0
2014-Aug-28 00:32N 34°37' E 135°26'9 2.2
2014-Aug-27 20:19N 34°35' E 135°15'15 0.5
2014-Aug-26 14:33N 34°37' E 134°57'1918.6
2014-Aug-26 13:33N 34°37' E 135°19'6 4.7
2014-Aug-26 12:22N 34°37' E 135°26'0 0.0
2014-Aug-26 11:28N 34°37' E 135°26'0 0.0
2014-Aug-26 10:28N 34°37' E 135°26'0 0.0
2014-Aug-26 09:22N 34°37' E 135°26'0 0.0
2014-Aug-26 08:22N 34°37' E 135°26'0 0.0
2014-Aug-26 07:28N 34°37' E 135°26'0 0.0
2014-Aug-26 06:28N 34°37' E 135°26'0 0.0
2014-Aug-26 05:22N 34°37' E 135°26'0 0.0
2014-Aug-26 04:28N 34°37' E 135°26'0 0.0
2014-Aug-26 03:28N 34°37' E 135°26'0 0.0
2014-Aug-26 02:22N 34°37' E 135°26'0 0.0
2014-Aug-26 01:28N 34°37' E 135°26'0 0.0
2014-Aug-26 00:28N 34°37' E 135°26'0 0.0
2014-Aug-25 23:22N 34°37' E 135°26'0 0.0
2014-Aug-25 22:22N 34°37' E 135°26'0 0.0
2014-Aug-25 21:22N 34°37' E 135°26'7 8.2
2014-Aug-25 20:34N 34°35' E 135°18'1817.5
2014-Aug-25 19:34N 34°36' E 134°57'1 0.0
2014-Aug-24 14:33N 34°37' E 134°57'1818.3
2014-Aug-24 13:33N 34°37' E 135°19'5 5.2
2014-Aug-24 12:31N 34°37' E 135°26'0 0.0
2014-Aug-24 11:25N 34°37' E 135°26'0 0.0
2014-Aug-24 10:25N 34°37' E 135°26'0 0.0
2014-Aug-24 09:31N 34°37' E 135°26'0 0.0
2014-Aug-24 08:31N 34°37' E 135°26'0 0.0
2014-Aug-24 07:31N 34°37' E 135°26'0 0.0
2014-Aug-24 06:31N 34°37' E 135°26'0 0.0
2014-Aug-24 05:31N 34°37' E 135°26'0 0.0
2014-Aug-24 04:25N 34°37' E 135°26'0 0.0
2014-Aug-24 03:31N 34°37' E 135°26'0 0.0
2014-Aug-24 02:31N 34°37' E 135°26'0 0.0
2014-Aug-24 01:31N 34°37' E 135°26'0 0.0
2014-Aug-24 00:31N 34°37' E 135°26'0 0.0
2014-Aug-23 23:31N 34°37' E 135°26'0 0.0
2014-Aug-23 22:31N 34°37' E 135°26'0 0.0
2014-Aug-23 21:31N 34°37' E 135°26'7 7.2
2014-Aug-23 20:33N 34°36' E 135°18'1817.7
2014-Aug-23 19:33N 34°36' E 134°56'  
Track history (hours):
 
Tides and Currents Weather Stations Pressure Air Temp Water Temp Dewpoint Dewpoint Depression Visibility Wind Speed Wind Dir Waves Ship Positions

Orange8

Last reported at 2014-Sep-01 14:33 UTC. Time now 2014-Sep-01 21:31 UTC.
Position N 34°37' E 134°58'.

Length 164 m; draft 5 m.

Type: Passenger vessel. MMSI: 431501603.

Date/timePositionNaut miles runAvg speedWind from/ knotsBaromVisibWave heightAir tempDewpointWater temp
2014-Sep-01 14:33N 34°37' E 134°58'1918.5
2014-Sep-01 13:33N 34°37' E 135°21'4 4.2
2014-Sep-01 12:31N 34°37' E 135°26'0 0.0
2014-Sep-01 11:25N 34°37' E 135°26'0 0.0
2014-Sep-01 10:31N 34°37' E 135°26'0 0.0
2014-Sep-01 09:31N 34°37' E 135°26'0 0.0
2014-Sep-01 08:31N 34°37' E 135°26'0 0.0
2014-Sep-01 07:31N 34°37' E 135°26'0 0.0
2014-Sep-01 06:31N 34°37' E 135°26'0 0.0
2014-Sep-01 05:25N 34°37' E 135°26'0 0.0
2014-Sep-01 04:31N 34°37' E 135°26'0 0.0
2014-Sep-01 03:31N 34°37' E 135°26'0 0.0
2014-Sep-01 02:31N 34°37' E 135°26'0 0.0
2014-Sep-01 01:25N 34°37' E 135°26'0 0.0
2014-Sep-01 00:31N 34°37' E 135°26'0 0.0
2014-Aug-31 23:31N 34°37' E 135°26'0 0.0
2014-Aug-31 22:31N 34°37' E 135°26'0 0.0
2014-Aug-31 21:25N 34°37' E 135°26'7 8.0
2014-Aug-31 20:33N 34°35' E 135°18'1817.9
2014-Aug-31 19:34N 34°36' E 134°56'1 0.0
2014-Aug-30 14:34N 34°37' E 134°56'1818.4
2014-Aug-30 13:34N 34°37' E 135°18'6 5.6
2014-Aug-30 12:28N 34°37' E 135°26'0 0.0
2014-Aug-30 11:28N 34°37' E 135°26'0 0.0
2014-Aug-30 10:28N 34°37' E 135°26'0 0.0
2014-Aug-30 06:04N 34°37' E 135°26'0 0.0
2014-Aug-30 05:04N 34°37' E 135°26'0 0.0
2014-Aug-30 04:28N 34°37' E 135°26'0 0.0
2014-Aug-30 03:16N 34°37' E 135°26'0 0.0
2014-Aug-30 02:28N 34°37' E 135°26'0 0.0
2014-Aug-30 01:07N 34°37' E 135°26'0 0.0
2014-Aug-30 00:31N 34°37' E 135°26'0 0.0
2014-Aug-29 23:13N 34°37' E 135°26'0 0.0
2014-Aug-29 22:31N 34°37' E 135°26'0 0.0
2014-Aug-29 21:31N 34°37' E 135°26'5 5.2
2014-Aug-29 20:33N 34°36' E 135°20'1818.2
2014-Aug-29 19:33N 34°36' E 134°58'14 0.5
2014-Aug-28 15:15N 34°32' E 134°42'1420.0
2014-Aug-28 14:33N 34°37' E 134°57'1817.9
2014-Aug-28 13:33N 34°36' E 135°19'6 5.2
2014-Aug-28 12:29N 34°37' E 135°26'0 0.0
2014-Aug-28 11:29N 34°37' E 135°26'0 0.0
2014-Aug-28 10:29N 34°37' E 135°26'0 0.0
2014-Aug-28 09:29N 34°37' E 135°26'0 0.0
2014-Aug-28 08:23N 34°37' E 135°26'0 0.0
2014-Aug-28 07:29N 34°37' E 135°26'0 0.0
2014-Aug-28 06:29N 34°37' E 135°26'0 0.0
2014-Aug-28 05:17N 34°37' E 135°26'0 0.0
2014-Aug-28 04:29N 34°37' E 135°26'0 0.0
2014-Aug-28 03:17N 34°37' E 135°26'0 0.0
2014-Aug-28 02:26N 34°37' E 135°26'0 0.0
2014-Aug-28 01:32N 34°37' E 135°26'0 0.0
2014-Aug-28 00:32N 34°37' E 135°26'9 2.2
2014-Aug-27 20:19N 34°35' E 135°15'15 0.5
2014-Aug-26 14:33N 34°37' E 134°57'1918.6
2014-Aug-26 13:33N 34°37' E 135°19'6 4.7
2014-Aug-26 12:22N 34°37' E 135°26'0 0.0
2014-Aug-26 11:28N 34°37' E 135°26'0 0.0
2014-Aug-26 10:28N 34°37' E 135°26'0 0.0
2014-Aug-26 09:22N 34°37' E 135°26'0 0.0
2014-Aug-26 08:22N 34°37' E 135°26'0 0.0
2014-Aug-26 07:28N 34°37' E 135°26'0 0.0
2014-Aug-26 06:28N 34°37' E 135°26'0 0.0
2014-Aug-26 05:22N 34°37' E 135°26'0 0.0
2014-Aug-26 04:28N 34°37' E 135°26'0 0.0
2014-Aug-26 03:28N 34°37' E 135°26'0 0.0
2014-Aug-26 02:22N 34°37' E 135°26'0 0.0
2014-Aug-26 01:28N 34°37' E 135°26'0 0.0
2014-Aug-26 00:28N 34°37' E 135°26'0 0.0
2014-Aug-25 23:22N 34°37' E 135°26'0 0.0
2014-Aug-25 22:22N 34°37' E 135°26'0 0.0
2014-Aug-25 21:22N 34°37' E 135°26'7 8.2
2014-Aug-25 20:34N 34°35' E 135°18'1817.5
2014-Aug-25 19:34N 34°36' E 134°57'1 0.0
2014-Aug-24 14:33N 34°37' E 134°57'1818.3
2014-Aug-24 13:33N 34°37' E 135°19'5 5.2
2014-Aug-24 12:31N 34°37' E 135°26'0 0.0
2014-Aug-24 11:25N 34°37' E 135°26'0 0.0
2014-Aug-24 10:25N 34°37' E 135°26'0 0.0
2014-Aug-24 09:31N 34°37' E 135°26'0 0.0
2014-Aug-24 08:31N 34°37' E 135°26'0 0.0
2014-Aug-24 07:31N 34°37' E 135°26'0 0.0
2014-Aug-24 06:31N 34°37' E 135°26'0 0.0
2014-Aug-24 05:31N 34°37' E 135°26'0 0.0
2014-Aug-24 04:25N 34°37' E 135°26'0 0.0
2014-Aug-24 03:31N 34°37' E 135°26'0 0.0
2014-Aug-24 02:31N 34°37' E 135°26'0 0.0
2014-Aug-24 01:31N 34°37' E 135°26'0 0.0
2014-Aug-24 00:31N 34°37' E 135°26'0 0.0
2014-Aug-23 23:31N 34°37' E 135°26'0 0.0
2014-Aug-23 22:31N 34°37' E 135°26'0 0.0
2014-Aug-23 21:31N 34°37' E 135°26'7 7.2
2014-Aug-23 20:33N 34°36' E 135°18'1817.7
2014-Aug-23 19:33N 34°36' E 134°56'  

Dump ship's entire track history